createdAt,value
2022-09-21T00:01:27.928Z,8.70
2022-09-21T00:03:59.101Z,9.00
2022-09-21T00:06:29.041Z,9.10
2022-09-21T00:08:57.143Z,9.20
2022-09-21T00:11:28.175Z,8.90
2022-09-21T00:14:00.184Z,8.70
2022-09-21T00:16:28.546Z,8.60
2022-09-21T00:18:56.342Z,8.50
2022-09-21T00:21:24.607Z,8.50
2022-09-21T00:23:52.000Z,8.50
2022-09-21T00:26:22.084Z,8.40
2022-09-21T00:28:54.991Z,8.40
2022-09-21T00:31:22.756Z,8.50
2022-09-21T00:33:51.328Z,8.50
2022-09-21T00:36:22.012Z,8.50
2022-09-21T00:38:52.793Z,8.70
2022-09-21T00:41:20.413Z,8.60
2022-09-21T00:44:08.211Z,8.40
2022-09-21T00:46:39.673Z,8.40
2022-09-21T00:49:08.565Z,8.30
2022-09-21T00:51:37.825Z,8.30
2022-09-21T00:54:13.249Z,8.20
2022-09-21T00:56:41.486Z,8.20
2022-09-21T00:59:09.897Z,8.40
2022-09-21T01:01:38.561Z,8.60
2022-09-21T01:04:07.331Z,8.60
2022-09-21T01:06:37.672Z,8.70
2022-09-21T01:09:06.018Z,8.40
2022-09-21T01:12:04.357Z,8.40
2022-09-21T01:14:57.250Z,8.30
2022-09-21T01:17:51.068Z,8.20
2022-09-21T01:20:45.024Z,8.20
2022-09-21T01:23:38.534Z,8.20
2022-09-21T01:26:27.042Z,8.20
2022-09-21T01:29:10.613Z,8.10
2022-09-21T01:31:45.113Z,8.00
2022-09-21T01:34:24.036Z,8.00
2022-09-21T01:36:56.840Z,8.10
2022-09-21T01:39:26.469Z,8.00
2022-09-21T01:41:56.387Z,8.10
2022-09-21T01:44:28.771Z,8.00
2022-09-21T01:46:58.141Z,8.00
2022-09-21T01:49:31.614Z,7.90
2022-09-21T01:52:05.776Z,7.90
2022-09-21T01:54:40.962Z,7.90
2022-09-21T01:57:28.899Z,8.00
2022-09-21T01:59:58.979Z,8.20
2022-09-21T02:02:39.153Z,8.20
2022-09-21T02:05:07.512Z,8.00
2022-09-21T02:07:36.059Z,8.00
2022-09-21T02:10:07.769Z,8.10
2022-09-21T02:12:35.466Z,8.10
2022-09-21T02:15:03.950Z,8.20
2022-09-21T02:17:54.719Z,8.40
2022-09-21T02:20:32.585Z,8.50
2022-09-21T02:23:11.870Z,8.60
2022-09-21T02:26:08.189Z,8.60
2022-09-21T02:28:54.218Z,8.30
2022-09-21T02:31:46.529Z,8.20
2022-09-21T02:34:34.893Z,8.10
2022-09-21T02:37:09.702Z,8.10
2022-09-21T02:39:55.335Z,8.20
2022-09-21T02:42:30.719Z,8.10
2022-09-21T02:45:07.765Z,8.10
2022-09-21T02:47:46.643Z,8.20
2022-09-21T02:50:21.569Z,8.20
2022-09-21T02:52:49.447Z,8.10
2022-09-21T02:55:18.022Z,8.10
2022-09-21T02:57:48.184Z,8.10
2022-09-21T03:00:17.613Z,8.10
2022-09-21T03:02:46.325Z,8.20
2022-09-21T03:05:15.177Z,8.30
2022-09-21T03:07:42.766Z,8.30
2022-09-21T03:10:10.876Z,8.40
2022-09-21T03:12:38.469Z,8.40
2022-09-21T03:15:06.406Z,8.40
2022-09-21T03:17:35.067Z,8.40
2022-09-21T03:20:02.808Z,8.50
2022-09-21T03:22:30.948Z,8.50
2022-09-21T03:24:59.316Z,8.60
2022-09-21T03:27:26.728Z,8.60
2022-09-21T03:29:54.054Z,8.60
2022-09-21T03:32:21.491Z,8.60
2022-09-21T03:34:49.040Z,8.50
2022-09-21T03:37:17.074Z,8.50
2022-09-21T03:39:47.217Z,8.60
2022-09-21T03:42:14.680Z,8.60
2022-09-21T03:44:42.156Z,8.60
2022-09-21T03:47:09.562Z,8.70
2022-09-21T03:49:37.208Z,8.80
2022-09-21T03:52:04.793Z,8.90
2022-09-21T03:54:32.301Z,8.90
2022-09-21T03:57:00.101Z,8.90
2022-09-21T03:59:27.501Z,9.00
2022-09-21T04:01:55.026Z,9.00
2022-09-21T04:04:22.610Z,9.00
2022-09-21T04:06:50.144Z,9.20
2022-09-21T04:09:17.925Z,9.30
2022-09-21T04:11:46.341Z,9.30
2022-09-21T04:14:13.793Z,9.40
2022-09-21T04:16:41.115Z,9.60
2022-09-21T04:19:08.654Z,9.60
2022-09-21T04:21:36.200Z,9.60
2022-09-21T04:24:04.425Z,9.60
2022-09-21T04:26:33.867Z,9.80
2022-09-21T04:29:02.311Z,9.90
2022-09-21T04:31:30.683Z,9.90
2022-09-21T04:33:58.976Z,10.00
2022-09-21T04:36:28.179Z,10.00
2022-09-21T04:38:55.712Z,10.10
2022-09-21T04:41:23.121Z,10.10
2022-09-21T04:43:50.520Z,10.20
2022-09-21T04:46:20.424Z,10.20
2022-09-21T04:48:48.457Z,10.20
2022-09-21T04:51:17.541Z,10.20
2022-09-21T04:53:45.476Z,10.30
2022-09-21T04:56:15.548Z,10.40
2022-09-21T04:58:44.285Z,10.30
2022-09-21T05:01:12.197Z,10.60
2022-09-21T05:03:39.924Z,10.70
2022-09-21T05:06:13.846Z,10.90
2022-09-21T05:08:56.952Z,11.10
2022-09-21T05:11:25.342Z,11.10
2022-09-21T05:13:53.084Z,11.70
2022-09-21T05:16:20.716Z,11.20
2022-09-21T05:18:53.647Z,11.40
2022-09-21T05:21:21.759Z,11.40
2022-09-21T05:23:49.182Z,11.50
2022-09-21T05:26:16.749Z,11.60
2022-09-21T05:28:44.439Z,11.50
2022-09-21T05:31:37.229Z,11.50
2022-09-21T05:34:29.475Z,11.40
2022-09-21T05:37:06.660Z,11.50
2022-09-21T05:39:34.375Z,11.50
2022-09-21T05:42:02.200Z,11.50
2022-09-21T05:44:30.005Z,11.70
2022-09-21T05:47:17.608Z,11.60
2022-09-21T05:50:10.729Z,11.60
2022-09-21T05:52:50.608Z,11.80
2022-09-21T05:55:38.229Z,11.90
2022-09-21T05:58:34.502Z,12.60
2022-09-21T06:01:25.033Z,12.80
2022-09-21T06:03:54.242Z,12.30
2022-09-21T06:06:21.716Z,12.30
2022-09-21T06:08:49.267Z,13.20
2022-09-21T06:11:17.041Z,14.60
2022-09-21T06:13:44.690Z,16.10
2022-09-21T06:16:12.443Z,15.80
2022-09-21T06:18:41.350Z,16.00
2022-09-21T06:21:09.012Z,15.30
2022-09-21T06:23:36.712Z,15.20
2022-09-21T06:26:04.993Z,15.10
2022-09-21T06:28:33.113Z,15.10
2022-09-21T06:31:00.901Z,15.40
2022-09-21T06:33:31.234Z,14.90
2022-09-21T06:36:00.565Z,15.10
2022-09-21T06:38:29.777Z,15.10
2022-09-21T06:41:03.351Z,15.90
2022-09-21T06:43:32.092Z,15.60
2022-09-21T06:46:01.565Z,15.50
2022-09-21T06:48:30.566Z,15.60
2022-09-21T06:51:00.485Z,16.10
2022-09-21T06:53:29.918Z,16.10
2022-09-21T06:56:07.702Z,15.00
2022-09-21T06:58:37.893Z,14.30
2022-09-21T07:01:08.145Z,14.10
2022-09-21T07:03:36.293Z,14.20
2022-09-21T07:06:04.771Z,14.40
2022-09-21T07:11:21.197Z,13.90
2022-09-21T07:13:48.635Z,13.90
2022-09-21T07:16:16.762Z,14.00
2022-09-21T07:18:44.527Z,13.90
2022-09-21T07:21:12.693Z,14.20
2022-09-21T07:23:40.257Z,13.80
2022-09-21T07:26:13.597Z,13.50
2022-09-21T07:28:41.327Z,13.80
2022-09-21T07:31:14.264Z,14.20
2022-09-21T07:33:42.961Z,14.20
2022-09-21T07:36:12.024Z,14.60
2022-09-21T07:38:41.517Z,15.00
2022-09-21T07:41:10.444Z,14.60
2022-09-21T07:43:41.214Z,14.20
2022-09-21T07:46:11.508Z,14.30
2022-09-21T07:48:39.661Z,14.00
2022-09-21T07:51:10.319Z,14.10
2022-09-21T07:53:39.783Z,14.00
2022-09-21T07:56:10.746Z,13.80
2022-09-21T07:58:55.135Z,13.80
2022-09-21T08:01:23.705Z,13.80
2022-09-21T08:03:53.074Z,13.70
2022-09-21T08:06:22.388Z,13.70
2022-09-21T08:08:55.076Z,13.50
2022-09-21T08:11:26.188Z,13.40
2022-09-21T08:13:56.485Z,13.20
2022-09-21T08:16:24.386Z,13.40
2022-09-21T08:18:52.177Z,13.40
2022-09-21T08:21:20.776Z,13.40
2022-09-21T08:23:49.508Z,13.40
2022-09-21T08:26:19.674Z,13.50
2022-09-21T08:28:49.418Z,13.80
2022-09-21T08:31:19.910Z,14.00
2022-09-21T08:33:50.099Z,14.10
2022-09-21T08:36:19.271Z,13.90
2022-09-21T08:38:48.693Z,13.90
2022-09-21T08:41:20.510Z,14.30
2022-09-21T08:43:53.986Z,14.20
2022-09-21T08:46:28.903Z,14.00
2022-09-21T08:49:04.098Z,14.20
2022-09-21T08:51:36.385Z,14.60
2022-09-21T08:54:15.310Z,15.10
2022-09-21T08:57:03.882Z,15.90
2022-09-21T08:59:30.589Z,16.00
2022-09-21T09:02:26.006Z,17.00
2022-09-21T09:05:18.604Z,16.20
2022-09-21T09:08:04.520Z,15.60
2022-09-21T09:10:41.887Z,15.40
2022-09-21T09:13:30.541Z,15.40
2022-09-21T09:16:09.076Z,15.60
2022-09-21T09:18:49.347Z,15.90
2022-09-21T09:21:30.166Z,15.70
2022-09-21T09:24:11.141Z,15.70
2022-09-21T09:26:47.586Z,17.00
2022-09-21T09:29:32.826Z,16.60
2022-09-21T09:32:01.867Z,16.60
2022-09-21T09:34:35.692Z,16.20
2022-09-21T09:37:13.769Z,15.70
2022-09-21T09:39:43.173Z,16.90
2022-09-21T09:42:36.842Z,17.60
2022-09-21T09:45:13.917Z,17.60
2022-09-21T09:48:03.103Z,17.60
2022-09-21T09:50:35.234Z,20.60
2022-09-21T09:53:09.314Z,20.50
2022-09-21T09:55:41.344Z,20.70
2022-09-21T09:58:18.921Z,17.30
2022-09-21T10:00:50.937Z,16.10
2022-09-21T10:03:20.722Z,16.40
2022-09-21T10:05:48.796Z,16.90
2022-09-21T10:08:39.813Z,16.30
2022-09-21T10:11:07.259Z,16.10
2022-09-21T10:13:37.644Z,15.70
2022-09-21T10:16:12.926Z,15.80
2022-09-21T10:18:46.766Z,16.40
2022-09-21T10:21:20.524Z,16.60
2022-09-21T10:23:52.998Z,16.50
2022-09-21T10:26:21.597Z,16.00
2022-09-21T10:28:59.866Z,15.60
2022-09-21T10:31:30.092Z,15.80
2022-09-21T10:34:12.931Z,15.60
2022-09-21T10:36:41.379Z,15.60
2022-09-21T10:39:18.179Z,15.40
2022-09-21T10:41:50.884Z,15.40
2022-09-21T10:44:21.776Z,15.60
2022-09-21T10:46:51.037Z,15.60
2022-09-21T10:49:26.150Z,15.40
2022-09-21T10:51:57.348Z,15.20
2022-09-21T10:54:30.945Z,15.10
2022-09-21T10:57:03.164Z,15.10
2022-09-21T10:59:32.824Z,15.40
2022-09-21T11:02:02.530Z,15.30
2022-09-21T11:04:48.695Z,15.70
2022-09-21T11:07:32.373Z,15.40
2022-09-21T11:10:12.085Z,15.40
2022-09-21T11:12:52.173Z,15.20
2022-09-21T11:15:46.584Z,15.30
2022-09-21T11:18:31.118Z,15.10
2022-09-21T11:21:13.700Z,15.10
2022-09-21T11:24:09.038Z,15.10
2022-09-21T11:26:55.037Z,15.30
2022-09-21T11:29:45.357Z,15.00
2022-09-21T11:32:43.667Z,14.90
2022-09-21T11:35:31.305Z,14.70
2022-09-21T11:38:21.160Z,14.70
2022-09-21T11:41:09.361Z,14.80
2022-09-21T11:44:10.492Z,14.80
2022-09-21T11:47:08.122Z,14.90
2022-09-21T11:50:32.245Z,15.00
2022-09-21T11:53:17.577Z,15.10
2022-09-21T11:56:09.081Z,15.00
2022-09-21T11:58:57.865Z,14.80
2022-09-21T12:01:56.031Z,14.80
2022-09-21T12:04:42.515Z,14.80
2022-09-21T12:07:33.220Z,14.80
2022-09-21T12:10:15.278Z,14.80
2022-09-21T12:12:54.622Z,14.80
2022-09-21T12:15:35.272Z,14.80
2022-09-21T12:18:21.281Z,14.70
2022-09-21T12:20:59.406Z,14.70
2022-09-21T12:23:45.416Z,14.60
2022-09-21T12:26:18.377Z,14.60
2022-09-21T12:28:52.745Z,14.60
2022-09-21T12:31:31.844Z,14.70
2022-09-21T12:34:11.405Z,14.60
2022-09-21T12:36:45.048Z,14.60
2022-09-21T12:39:30.288Z,14.60
2022-09-21T12:42:09.953Z,14.50
2022-09-21T12:44:53.088Z,14.50
2022-09-21T12:47:34.985Z,14.50
2022-09-21T12:50:13.578Z,14.50
2022-09-21T12:52:41.127Z,14.50
2022-09-21T12:55:34.440Z,14.60
2022-09-21T12:58:16.094Z,14.60
2022-09-21T13:01:01.376Z,14.60
2022-09-21T13:03:44.870Z,14.60
2022-09-21T13:06:23.024Z,14.60
2022-09-21T13:08:51.173Z,14.60
2022-09-21T13:11:22.265Z,14.60
2022-09-21T13:13:54.544Z,14.60
2022-09-21T13:16:27.806Z,14.60
2022-09-21T13:18:56.395Z,14.60
2022-09-21T13:21:27.134Z,14.60
2022-09-21T13:23:58.557Z,14.70
2022-09-21T13:26:42.926Z,14.80
2022-09-21T13:29:33.164Z,14.70
2022-09-21T13:32:04.107Z,14.80
2022-09-21T13:34:38.660Z,14.80
2022-09-21T13:37:25.670Z,14.80
2022-09-21T13:40:35.252Z,14.70
2022-09-21T13:43:19.396Z,14.70
2022-09-21T13:45:53.670Z,14.60
2022-09-21T13:48:25.426Z,14.60
2022-09-21T13:50:56.670Z,14.60
2022-09-21T13:53:35.633Z,14.50
2022-09-21T13:56:25.238Z,14.50
2022-09-21T13:58:57.482Z,14.70
2022-09-21T14:01:46.891Z,14.60
2022-09-21T14:04:23.128Z,14.50
2022-09-21T14:06:54.474Z,14.70
2022-09-21T14:09:28.882Z,14.70
2022-09-21T14:12:01.880Z,14.70
2022-09-21T14:14:37.506Z,14.70
2022-09-21T14:17:26.578Z,14.50
2022-09-21T14:20:00.855Z,14.50
2022-09-21T14:22:38.457Z,14.60
2022-09-21T14:25:25.933Z,14.50
2022-09-21T14:27:53.761Z,14.50
2022-09-21T14:30:27.436Z,14.50
2022-09-21T14:33:21.293Z,14.50
2022-09-21T14:35:51.533Z,14.50
2022-09-21T14:38:28.674Z,14.40
2022-09-21T14:41:07.433Z,14.40
2022-09-21T14:43:41.211Z,14.30
2022-09-21T14:46:32.050Z,14.20
2022-09-21T14:49:21.945Z,14.40
2022-09-21T14:52:12.582Z,14.30
2022-09-21T14:55:01.710Z,14.40
2022-09-21T14:57:53.419Z,14.30
2022-09-21T15:00:38.803Z,14.20
2022-09-21T15:03:39.554Z,14.30
2022-09-21T15:06:41.116Z,14.30
2022-09-21T15:09:58.919Z,14.30
2022-09-21T15:12:47.793Z,14.30
2022-09-21T15:15:51.841Z,14.20
2022-09-21T15:18:22.162Z,14.10
2022-09-21T15:21:03.709Z,14.20
2022-09-21T15:23:39.517Z,14.30
2022-09-21T15:26:12.421Z,14.30
2022-09-21T15:29:08.417Z,14.00
2022-09-21T15:31:42.251Z,13.90
2022-09-21T15:34:13.897Z,13.90
2022-09-21T15:36:43.477Z,14.20
2022-09-21T15:39:33.044Z,13.80
2022-09-21T15:42:20.200Z,13.60
2022-09-21T15:44:51.030Z,13.40
2022-09-21T15:47:27.608Z,13.20
2022-09-21T15:49:56.980Z,13.30
2022-09-21T15:52:31.844Z,13.30
2022-09-21T15:55:10.393Z,13.40
2022-09-21T15:57:43.394Z,13.40
2022-09-21T16:00:22.580Z,13.40
2022-09-21T16:02:57.497Z,13.40
2022-09-21T16:05:29.252Z,13.30
2022-09-21T16:08:08.225Z,13.30
2022-09-21T16:10:41.838Z,13.30
2022-09-21T16:13:31.241Z,13.30
2022-09-21T16:16:12.208Z,13.40
2022-09-21T16:18:50.004Z,13.50
2022-09-21T16:21:27.865Z,13.40
2022-09-21T16:23:57.890Z,13.30
2022-09-21T16:26:32.774Z,13.50
2022-09-21T16:29:18.965Z,13.80
2022-09-21T16:31:50.930Z,13.70
2022-09-21T16:34:22.288Z,13.70
2022-09-21T16:36:52.056Z,13.80
2022-09-21T16:39:21.871Z,13.70
2022-09-21T16:41:56.082Z,13.60
2022-09-21T16:44:26.292Z,13.50
2022-09-21T16:46:58.347Z,13.50
2022-09-21T16:49:30.463Z,13.10
2022-09-21T16:51:59.440Z,12.50
2022-09-21T16:54:27.848Z,12.60
2022-09-21T16:56:59.467Z,12.20
2022-09-21T16:59:30.005Z,12.10
2022-09-21T17:02:00.546Z,12.10
2022-09-21T17:04:33.733Z,12.10
2022-09-21T17:08:01.909Z,12.10
2022-09-21T17:10:36.579Z,12.10
2022-09-21T17:13:07.017Z,11.90
2022-09-21T17:15:39.849Z,12.10
2022-09-21T17:18:07.710Z,11.80
2022-09-21T17:20:37.834Z,11.80
2022-09-21T17:23:05.790Z,11.70
2022-09-21T17:25:38.609Z,11.80
2022-09-21T17:28:20.953Z,11.70
2022-09-21T17:30:48.786Z,11.80
2022-09-21T17:33:24.054Z,11.70
2022-09-21T17:35:52.504Z,11.80
2022-09-21T17:38:19.877Z,11.50
2022-09-21T17:40:48.463Z,11.60
2022-09-21T17:43:40.624Z,11.70
2022-09-21T17:46:18.999Z,11.40
2022-09-21T17:48:49.632Z,11.20
2022-09-21T17:51:38.377Z,11.10
2022-09-21T17:54:06.413Z,11.20
2022-09-21T17:56:43.945Z,11.40
2022-09-21T17:59:31.710Z,11.30
2022-09-21T18:02:01.425Z,11.20
2022-09-21T18:04:34.961Z,11.20
2022-09-21T18:07:14.189Z,11.20
2022-09-21T18:09:44.719Z,11.30
2022-09-21T18:12:48.847Z,11.30
2022-09-21T18:15:28.715Z,11.30
2022-09-21T18:18:07.852Z,11.20
2022-09-21T18:20:54.049Z,11.20
2022-09-21T18:23:44.358Z,11.10
2022-09-21T18:26:18.568Z,11.10
2022-09-21T18:28:53.914Z,11.10
2022-09-21T18:31:42.098Z,10.90
2022-09-21T18:34:47.097Z,11.00
2022-09-21T18:37:24.231Z,11.00
2022-09-21T18:40:12.288Z,11.00
2022-09-21T18:42:51.840Z,10.70
2022-09-21T18:45:42.521Z,10.60
2022-09-21T18:48:40.384Z,10.70
2022-09-21T18:51:29.514Z,10.60
2022-09-21T18:53:58.327Z,10.90
2022-09-21T18:56:34.825Z,10.80
2022-09-21T18:59:18.811Z,10.70
2022-09-21T19:01:48.883Z,10.70
2022-09-21T19:04:19.215Z,10.80
2022-09-21T19:06:57.232Z,10.80
2022-09-21T19:09:54.860Z,10.90
2022-09-21T19:12:40.630Z,10.90
2022-09-21T19:15:59.817Z,10.70
2022-09-21T19:18:49.004Z,10.70
2022-09-21T19:21:41.426Z,11.00
2022-09-21T19:24:23.268Z,11.20
2022-09-21T19:27:29.077Z,11.00
2022-09-21T19:30:22.606Z,11.20
2022-09-21T19:32:53.570Z,10.80
2022-09-21T19:35:42.776Z,10.80
2022-09-21T19:38:10.313Z,10.80
2022-09-21T19:40:44.163Z,11.00
2022-09-21T19:43:36.852Z,10.80
2022-09-21T19:46:34.789Z,10.70
2022-09-21T19:49:18.775Z,11.50
2022-09-21T19:51:52.553Z,11.00
2022-09-21T19:54:37.740Z,10.90
2022-09-21T19:57:33.941Z,11.30
2022-09-21T20:00:02.455Z,11.10
2022-09-21T20:02:42.981Z,11.10
2022-09-21T20:05:30.173Z,11.00
2022-09-21T20:08:30.335Z,11.10
2022-09-21T20:11:08.588Z,11.10
2022-09-21T20:13:53.804Z,11.00
2022-09-21T20:16:51.598Z,11.20
2022-09-21T20:19:44.538Z,11.10
2022-09-21T20:22:14.589Z,11.10
2022-09-21T20:24:54.298Z,11.10
2022-09-21T20:27:33.118Z,11.10
2022-09-21T20:30:03.293Z,11.30
2022-09-21T20:34:59.730Z,10.80
2022-09-21T20:42:43.028Z,11.10
2022-09-21T20:45:13.663Z,11.30
2022-09-21T20:47:43.934Z,11.00
2022-09-21T20:50:12.174Z,11.10
2022-09-21T20:52:42.541Z,11.20
2022-09-21T20:55:13.692Z,11.10
2022-09-21T20:57:45.721Z,11.10
2022-09-21T21:03:21.629Z,11.10
2022-09-21T21:08:21.548Z,10.50
2022-09-21T21:28:04.481Z,11.10
2022-09-21T21:47:58.125Z,11.00
2022-09-21T21:53:03.486Z,10.90
2022-09-21T22:10:25.565Z,11.00
2022-09-21T22:22:45.593Z,11.20
2022-09-21T22:35:20.694Z,10.90
2022-09-21T22:40:21.676Z,11.00
2022-09-21T22:52:50.349Z,11.30
2022-09-21T22:57:46.441Z,10.50
2022-09-21T23:02:42.805Z,10.40
2022-09-21T23:07:37.769Z,11.00
2022-09-21T23:15:07.348Z,10.80
2022-09-21T23:27:29.973Z,11.60
2022-09-21T23:32:26.064Z,10.80
2022-09-21T23:37:21.222Z,11.10
2022-09-21T23:42:16.201Z,10.90
2022-09-21T23:52:06.929Z,10.40
2022-09-21T23:57:01.892Z,11.20
